Time;durP1;ratioP1;P1;durP2;ratioP2;P2;SDS_P1;SDS_P2;PMS_P1;PMS_P2;Temp;Humidity;BMP_temperature;BMP_pressure;BME280_temperature;BME280_humidity;BME280_pressure;Samples;Min_cycle;Max_cycle;Signal;HPM_P1;HPM_P2
2023/09/17 00:00:32;;;;;;;12.68;8.75;;;20.60;99.90;;;;;;4956568;28;20934;-75
2023/09/17 00:02:58;;;;;;;8.85;7.72;;;20.60;99.90;;;;;;4961216;28;20134;-75
2023/09/17 00:05:24;;;;;;;10.88;8.25;;;20.60;99.90;;;;;;4964185;28;20106;-75
2023/09/17 00:07:50;;;;;;;12.60;8.40;;;20.60;99.90;;;;;;4940765;28;20452;-75
2023/09/17 00:10:16;;;;;;;12.18;8.15;;;20.50;99.90;;;;;;4957325;28;20023;-75
2023/09/17 00:12:42;;;;;;;9.63;7.65;;;20.60;99.90;;;;;;4956191;28;20031;-77
2023/09/17 00:15:08;;;;;;;10.10;8.10;;;20.60;99.90;;;;;;4961274;28;20215;-75
2023/09/17 00:17:34;;;;;;;12.70;8.32;;;20.60;99.90;;;;;;4964375;28;20110;-76
2023/09/17 00:20:00;;;;;;;9.10;8.13;;;20.50;99.90;;;;;;4956212;28;20101;-76
2023/09/17 00:22:26;;;;;;;9.93;7.85;;;20.50;99.90;;;;;;4958829;28;20042;-76
2023/09/17 00:24:51;;;;;;;9.23;7.93;;;20.50;99.90;;;;;;4946620;29;20031;-74
2023/09/17 00:27:17;;;;;;;10.07;7.72;;;20.40;99.90;;;;;;4960064;28;20365;-76
2023/09/17 00:29:43;;;;;;;9.35;7.55;;;20.40;99.90;;;;;;4954667;28;20077;-75
2023/09/17 00:32:09;;;;;;;9.52;7.18;;;20.30;99.90;;;;;;4958377;28;20500;-75
2023/09/17 00:34:34;;;;;;;9.45;7.57;;;20.30;99.90;;;;;;4956229;28;20118;-75
2023/09/17 00:37:00;;;;;;;8.93;7.07;;;20.30;99.90;;;;;;4963906;28;20038;-75
2023/09/17 00:39:27;;;;;;;9.93;7.45;;;20.20;99.90;;;;;;4961368;28;20065;-75
2023/09/17 00:41:53;;;;;;;9.23;7.45;;;20.20;99.90;;;;;;4955343;28;20421;-75
2023/09/17 00:44:19;;;;;;;8.30;7.32;;;20.20;99.90;;;;;;4960049;28;20062;-75
2023/09/17 00:46:45;;;;;;;11.82;7.55;;;20.10;99.90;;;;;;4963994;28;20149;-76
2023/09/17 00:49:13;;;;;;;9.38;7.32;;;20.10;99.90;;;;;;4957955;28;20022;-76
2023/09/17 00:51:43;;;;;;;8.07;6.65;;;20.10;99.90;;;;;;4956000;28;20026;-75
2023/09/17 00:54:10;;;;;;;9.47;8.47;;;20.10;99.90;;;;;;4962899;28;20115;-75
2023/09/17 00:56:38;;;;;;;9.30;7.95;;;20.00;99.90;;;;;;4962840;28;20031;-75
2023/09/17 00:59:07;;;;;;;9.60;7.72;;;20.00;99.90;;;;;;4955710;28;20019;-75
2023/09/17 01:01:33;;;;;;;10.65;8.50;;;20.00;99.90;;;;;;4958138;28;20050;-75
2023/09/17 01:04:00;;;;;;;11.93;9.88;;;19.90;99.90;;;;;;4964911;28;20023;-75
2023/09/17 01:06:27;;;;;;;11.10;8.82;;;19.90;99.90;;;;;;4959713;28;20035;-75
2023/09/17 01:08:54;;;;;;;10.38;9.27;;;19.90;99.90;;;;;;4949635;28;20085;-75
2023/09/17 01:11:20;;;;;;;13.52;10.07;;;19.80;99.90;;;;;;4953507;28;20054;-75
2023/09/17 01:14:00;;;;;;;13.57;9.98;;;19.80;99.90;;;;;;4959849;28;20025;-75
2023/09/17 01:16:26;;;;;;;11.90;10.07;;;19.80;99.90;;;;;;4955532;28;20029;-75
2023/09/17 01:18:53;;;;;;;12.00;9.65;;;19.80;99.90;;;;;;4958593;28;20031;-75
2023/09/17 01:21:31;;;;;;;11.77;9.63;;;19.70;99.90;;;;;;4963278;28;20015;-75
2023/09/17 01:24:40;;;;;;;10.52;9.25;;;19.70;99.90;;;;;;4959497;28;20039;-75
2023/09/17 01:27:06;;;;;;;11.48;9.50;;;19.60;99.90;;;;;;4940045;28;20501;-76
2023/09/17 01:29:38;;;;;;;10.20;8.82;;;19.60;99.90;;;;;;4954849;28;20024;-76
2023/09/17 01:32:04;;;;;;;12.55;10.05;;;19.50;99.90;;;;;;4962040;28;20078;-76
2023/09/17 01:34:37;;;;;;;12.88;10.02;;;19.50;99.90;;;;;;4961787;28;20054;-75
2023/09/17 01:37:11;;;;;;;11.10;9.75;;;19.40;99.90;;;;;;4942043;28;20027;-75
2023/09/17 01:39:41;;;;;;;10.95;9.45;;;19.40;99.90;;;;;;4950663;28;20058;-76
2023/09/17 01:42:08;;;;;;;12.90;10.77;;;19.30;99.90;;;;;;4964270;28;20051;-76
2023/09/17 01:44:35;;;;;;;12.50;10.38;;;19.30;99.90;;;;;;4960371;28;20022;-75
2023/09/17 01:47:02;;;;;;;15.02;11.23;;;19.30;99.90;;;;;;4951123;28;20024;-75
2023/09/17 01:49:32;;;;;;;11.88;10.27;;;19.20;99.90;;;;;;4958764;28;20027;-76
2023/09/17 01:51:58;;;;;;;10.85;9.70;;;19.20;99.90;;;;;;4954900;28;20139;-76
2023/09/17 01:54:25;;;;;;;11.82;10.38;;;19.10;99.90;;;;;;4959524;28;20118;-76
2023/09/17 01:56:51;;;;;;;13.98;10.77;;;19.10;99.90;;;;;;4962695;28;20023;-75
2023/09/17 01:59:17;;;;;;;10.85;9.23;;;19.10;99.90;;;;;;4955526;28;20037;-76
2023/09/17 02:01:43;;;;;;;11.48;9.27;;;19.10;99.90;;;;;;4956157;28;20027;-75
2023/09/17 02:04:09;;;;;;;12.60;9.75;;;19.00;99.90;;;;;;4956582;28;20474;-76
2023/09/17 02:06:36;;;;;;;12.23;9.80;;;19.00;99.90;;;;;;4966248;28;20101;-73
2023/09/17 02:09:05;;;;;;;9.77;8.77;;;19.00;99.90;;;;;;4954547;28;20544;-75
2023/09/17 02:11:32;;;;;;;11.93;10.57;;;19.00;99.90;;;;;;4964653;28;20030;-76
2023/09/17 02:13:57;;;;;;;10.38;9.27;;;19.00;99.90;;;;;;4956517;28;20077;-75
2023/09/17 02:16:23;;;;;;;12.15;8.93;;;19.00;99.90;;;;;;4962390;28;20030;-75
2023/09/17 02:18:51;;;;;;;15.57;9.75;;;19.00;99.90;;;;;;4958002;28;20015;-76
2023/09/17 02:21:16;;;;;;;12.73;10.70;;;19.00;99.90;;;;;;4954639;28;20067;-76
2023/09/17 02:23:44;;;;;;;13.98;10.43;;;18.90;99.90;;;;;;4963170;28;20521;-76
2023/09/17 02:26:09;;;;;;;13.07;10.75;;;19.00;99.90;;;;;;4962490;28;20109;-76
2023/09/17 02:28:35;;;;;;;13.00;10.23;;;18.90;99.90;;;;;;4954837;28;20023;-75
2023/09/17 02:31:02;;;;;;;11.23;9.40;;;18.90;99.90;;;;;;4955926;28;20027;-75
2023/09/17 02:33:30;;;;;;;11.75;10.60;;;18.90;99.90;;;;;;4961950;28;20110;-76
2023/09/17 02:35:56;;;;;;;11.05;9.40;;;18.90;99.90;;;;;;4958022;28;20501;-75
2023/09/17 02:38:22;;;;;;;11.85;10.50;;;18.90;99.90;;;;;;4954044;28;20054;-75
2023/09/17 02:40:48;;;;;;;16.13;11.60;;;18.80;99.90;;;;;;4959393;28;20498;-76
2023/09/17 02:43:13;;;;;;;15.23;10.70;;;18.80;99.90;;;;;;4949378;28;20117;-76
2023/09/17 02:45:39;;;;;;;12.73;10.13;;;18.80;99.90;;;;;;4961162;28;20023;-77
2023/09/17 02:48:05;;;;;;;13.00;10.88;;;18.80;99.90;;;;;;4943947;28;20031;-77
2023/09/17 02:50:31;;;;;;;12.70;10.63;;;18.70;99.90;;;;;;4953894;28;20102;-77
2023/09/17 02:52:58;;;;;;;15.60;11.25;;;18.70;99.90;;;;;;4957650;28;20103;-77
2023/09/17 02:55:23;;;;;;;15.65;10.65;;;18.60;99.90;;;;;;4961944;28;20051;-77
2023/09/17 02:57:49;;;;;;;12.70;10.70;;;18.50;99.90;;;;;;4948640;28;20062;-77
2023/09/17 03:00:17;;;;;;;12.05;10.07;;;18.50;99.90;;;;;;4944299;28;20506;-77
2023/09/17 03:02:47;;;;;;;12.95;11.43;;;18.40;99.90;;;;;;4955541;28;20034;-77
2023/09/17 03:05:17;;;;;;;12.27;10.95;;;18.30;99.90;;;;;;4949243;28;20070;-76
2023/09/17 03:07:43;;;;;;;14.32;11.82;;;18.20;99.90;;;;;;4943870;28;20023;-77
2023/09/17 03:10:11;;;;;;;13.82;9.93;;;18.20;99.90;;;;;;4959110;28;20020;-77
2023/09/17 03:12:38;;;;;;;15.63;12.38;;;18.10;99.90;;;;;;4956209;28;20031;-77
2023/09/17 03:15:05;;;;;;;15.60;11.82;;;18.10;99.90;;;;;;4964138;28;20028;-77
2023/09/17 03:17:31;;;;;;;14.85;12.18;;;18.00;99.90;;;;;;4947344;28;20035;-77
2023/09/17 03:19:57;;;;;;;13.25;11.30;;;18.00;99.90;;;;;;4934783;29;20031;-78
2023/09/17 03:22:23;;;;;;;14.35;11.73;;;17.90;99.90;;;;;;4942230;29;20406;-78
2023/09/17 03:24:48;;;;;;;13.52;11.45;;;17.90;99.90;;;;;;4964875;28;20038;-78
2023/09/17 03:27:14;;;;;;;15.27;12.10;;;17.90;99.90;;;;;;4951988;29;20090;-78
2023/09/17 03:29:40;;;;;;;13.35;11.65;;;17.80;99.90;;;;;;4946452;28;20042;-78
2023/09/17 03:32:06;;;;;;;12.18;10.88;;;17.80;99.90;;;;;;4964219;28;20027;-78
2023/09/17 03:34:32;;;;;;;16.90;12.50;;;17.80;99.90;;;;;;4964086;28;20034;-78
2023/09/17 03:36:58;;;;;;;14.75;12.63;;;17.80;99.90;;;;;;4957348;28;20055;-78
2023/09/17 03:39:24;;;;;;;13.25;11.82;;;17.80;99.90;;;;;;4959300;28;20086;-78
2023/09/17 03:41:49;;;;;;;16.13;13.52;;;17.70;99.90;;;;;;4965219;28;20070;-78
2023/09/17 03:44:15;;;;;;;15.25;13.18;;;17.70;99.90;;;;;;4933891;29;20405;-78
2023/09/17 03:46:41;;;;;;;14.90;13.40;;;17.70;99.90;;;;;;4952323;28;20028;-78
2023/09/17 03:49:06;;;;;;;13.55;11.68;;;17.70;99.90;;;;;;4963436;28;20090;-78
2023/09/17 03:51:32;;;;;;;14.85;12.45;;;17.70;99.90;;;;;;4946386;28;20035;-78
2023/09/17 03:53:59;;;;;;;15.38;12.30;;;17.60;99.90;;;;;;4939234;28;20122;-78
2023/09/17 03:56:25;;;;;;;14.52;13.02;;;17.60;99.90;;;;;;4958971;28;20031;-77
2023/09/17 03:58:52;;;;;;;15.60;13.02;;;17.70;99.90;;;;;;4968106;28;20045;-78
2023/09/17 04:01:18;;;;;;;19.55;13.43;;;17.60;99.90;;;;;;4960917;28;20450;-77
2023/09/17 04:03:45;;;;;;;17.63;14.65;;;17.60;99.90;;;;;;4962479;28;20023;-79
2023/09/17 04:06:10;;;;;;;15.77;13.88;;;17.50;99.90;;;;;;4958633;28;20045;-80
2023/09/17 04:08:36;;;;;;;18.45;14.07;;;17.50;99.90;;;;;;4956829;28;20390;-80
2023/09/17 04:11:04;;;;;;;17.92;15.65;;;17.50;99.90;;;;;;4951400;28;20027;-79
2023/09/17 04:13:29;;;;;;;16.05;14.30;;;17.50;99.90;;;;;;4962376;28;20031;-80
2023/09/17 04:15:55;;;;;;;18.08;15.18;;;17.40;99.90;;;;;;4964064;28;20413;-81
2023/09/17 04:18:21;;;;;;;17.20;14.93;;;17.40;99.90;;;;;;4938813;28;20093;-80
2023/09/17 04:20:47;;;;;;;16.33;13.98;;;17.40;99.90;;;;;;4958280;28;20030;-80
2023/09/17 04:23:13;;;;;;;16.60;14.57;;;17.40;99.90;;;;;;4947839;29;20027;-81
2023/09/17 04:25:39;;;;;;;18.40;15.10;;;17.40;99.90;;;;;;4960351;28;20508;-80
2023/09/17 04:28:06;;;;;;;15.98;14.15;;;17.40;99.90;;;;;;4957104;28;20082;-79
2023/09/17 04:30:31;;;;;;;18.23;15.18;;;17.40;99.90;;;;;;4961743;28;20576;-80
2023/09/17 04:32:57;;;;;;;16.90;14.68;;;17.40;99.90;;;;;;4964589;28;20019;-80
2023/09/17 04:35:23;;;;;;;18.48;15.50;;;17.40;99.90;;;;;;4956486;28;20019;-80
2023/09/17 04:37:50;;;;;;;21.75;16.63;;;17.40;99.90;;;;;;4958003;28;20066;-80
2023/09/17 04:40:17;;;;;;;21.30;16.38;;;17.40;99.90;;;;;;4963417;28;20051;-80
2023/09/17 04:42:44;;;;;;;24.38;16.05;;;17.40;99.90;;;;;;4960847;28;20549;-79
2023/09/17 04:45:12;;;;;;;20.73;15.27;;;17.40;99.90;;;;;;4956013;28;20566;-80
2023/09/17 04:47:39;;;;;;;19.23;15.63;;;17.40;99.90;;;;;;4960571;28;20058;-80
2023/09/17 04:50:12;;;;;;;19.45;14.90;;;17.40;99.90;;;;;;4946110;28;20050;-79
2023/09/17 04:52:38;;;;;;;18.80;15.73;;;17.40;99.90;;;;;;4950462;29;20023;-79
2023/09/17 04:55:05;;;;;;;18.30;15.15;;;17.40;99.90;;;;;;4963471;28;20159;-78
2023/09/17 04:57:31;;;;;;;19.60;16.05;;;17.40;99.90;;;;;;4956264;28;20397;-80
2023/09/17 04:59:56;;;;;;;20.00;15.15;;;17.40;99.90;;;;;;4957350;28;20034;-80
2023/09/17 05:02:22;;;;;;;17.08;15.00;;;17.40;99.90;;;;;;4959585;28;20030;-79
2023/09/17 05:04:47;;;;;;;24.02;16.38;;;17.40;99.90;;;;;;4967251;28;20093;-79
2023/09/17 05:07:14;;;;;;;23.95;15.98;;;17.40;99.90;;;;;;4955690;28;20478;-80
2023/09/17 05:09:40;;;;;;;22.25;16.52;;;17.40;99.90;;;;;;4943378;29;20028;-80
2023/09/17 05:12:08;;;;;;;21.63;16.92;;;17.40;99.90;;;;;;4953698;28;20046;-79
2023/09/17 05:14:33;;;;;;;20.08;15.75;;;17.40;99.90;;;;;;4945787;28;20032;-79
2023/09/17 05:16:59;;;;;;;22.35;17.48;;;17.40;99.90;;;;;;4941406;28;20027;-80
2023/09/17 05:19:25;;;;;;;23.77;15.90;;;17.40;99.90;;;;;;4955343;28;20035;-80
2023/09/17 05:21:51;;;;;;;19.75;14.85;;;17.40;99.90;;;;;;4962698;28;20027;-81
2023/09/17 05:24:17;;;;;;;16.98;13.80;;;17.40;99.90;;;;;;4932301;29;20030;-80
2023/09/17 05:26:43;;;;;;;19.00;15.45;;;17.40;99.90;;;;;;4963295;28;20022;-80
2023/09/17 05:29:15;;;;;;;23.77;18.45;;;17.40;99.90;;;;;;4942381;28;20015;-80
2023/09/17 05:31:41;;;;;;;25.77;17.75;;;17.40;99.90;;;;;;4955561;28;20046;-81
2023/09/17 05:34:07;;;;;;;18.30;14.77;;;17.40;99.90;;;;;;4942018;29;20625;-79
2023/09/17 05:36:33;;;;;;;20.55;15.07;;;17.40;99.90;;;;;;4962236;28;20027;-81
2023/09/17 05:39:00;;;;;;;22.25;16.88;;;17.40;99.90;;;;;;4961345;28;20367;-82
2023/09/17 05:41:25;;;;;;;20.90;15.18;;;17.30;99.90;;;;;;4963240;28;20039;-82
2023/09/17 05:43:51;;;;;;;18.92;16.67;;;17.30;99.90;;;;;;4921742;29;20038;-81
2023/09/17 05:46:17;;;;;;;24.27;15.45;;;17.30;99.90;;;;;;4943588;28;20049;-82
2023/09/17 05:48:42;;;;;;;18.75;14.73;;;17.30;99.90;;;;;;4955601;28;20046;-81
2023/09/17 05:51:08;;;;;;;19.95;16.23;;;17.30;99.90;;;;;;4959253;28;20062;-83
2023/09/17 05:53:35;;;;;;;18.63;15.48;;;17.30;99.90;;;;;;4947621;28;20090;-82
2023/09/17 05:56:02;;;;;;;21.80;16.35;;;17.30;99.90;;;;;;4960440;28;20122;-82
2023/09/17 05:58:28;;;;;;;21.85;17.30;;;17.40;99.90;;;;;;4963774;28;20084;-81
2023/09/17 06:00:54;;;;;;;21.58;16.73;;;17.30;99.90;;;;;;4955207;28;20452;-81
2023/09/17 06:03:20;;;;;;;19.48;15.38;;;17.40;99.90;;;;;;4939302;29;20027;-81
2023/09/17 06:05:45;;;;;;;18.75;15.20;;;17.30;99.90;;;;;;4962342;28;20068;-83
2023/09/17 06:08:11;;;;;;;21.60;16.10;;;17.40;99.90;;;;;;4949709;29;20031;-81
2023/09/17 06:10:37;;;;;;;17.65;15.40;;;17.40;99.90;;;;;;4962559;28;20524;-81
2023/09/17 06:13:03;;;;;;;18.02;13.23;;;17.40;99.90;;;;;;4963028;28;20038;-81
2023/09/17 06:15:29;;;;;;;18.92;15.68;;;17.40;99.90;;;;;;4941711;28;20594;-82
2023/09/17 06:17:54;;;;;;;21.23;15.55;;;17.40;99.90;;;;;;4955095;28;20027;-82
2023/09/17 06:20:20;;;;;;;16.63;14.18;;;17.40;99.90;;;;;;4947301;28;20500;-80
2023/09/17 06:22:48;;;;;;;20.85;15.95;;;17.40;99.90;;;;;;4957926;28;20035;-81
2023/09/17 06:25:14;;;;;;;20.08;14.57;;;17.40;99.90;;;;;;4961374;28;20027;-80
2023/09/17 06:27:39;;;;;;;21.38;14.70;;;17.40;99.90;;;;;;4949138;29;20543;-81
2023/09/17 06:30:06;;;;;;;19.27;13.88;;;17.40;99.90;;;;;;4962143;28;20106;-80
2023/09/17 06:32:31;;;;;;;19.02;15.05;;;17.40;99.90;;;;;;4959113;28;20114;-79
2023/09/17 06:34:57;;;;;;;18.95;14.82;;;17.40;99.90;;;;;;4934131;29;20115;-79
2023/09/17 06:37:23;;;;;;;16.38;14.45;;;17.30;99.90;;;;;;4956809;28;20031;-79
2023/09/17 06:39:49;;;;;;;14.30;11.68;;;17.40;99.90;;;;;;4941655;28;20054;-79
2023/09/17 06:42:14;;;;;;;15.52;13.57;;;17.40;99.90;;;;;;4965563;28;20889;-80
2023/09/17 06:44:40;;;;;;;15.35;12.13;;;17.40;99.90;;;;;;4964803;28;20027;-80
2023/09/17 06:47:05;;;;;;;18.35;14.43;;;17.30;99.90;;;;;;4958664;28;20405;-80
2023/09/17 06:49:31;;;;;;;17.00;12.38;;;17.40;99.90;;;;;;4959997;28;20494;-81
2023/09/17 06:51:57;;;;;;;18.85;14.02;;;17.40;99.90;;;;;;4966421;28;20022;-79
2023/09/17 06:54:22;;;;;;;15.85;13.48;;;17.30;99.90;;;;;;4959155;28;20022;-80
2023/09/17 06:56:48;;;;;;;20.15;14.70;;;17.40;99.90;;;;;;4958132;28;20023;-79
2023/09/17 06:59:14;;;;;;;15.18;13.07;;;17.30;99.90;;;;;;4965062;28;20023;-79
2023/09/17 07:01:41;;;;;;;15.43;13.43;;;17.30;99.90;;;;;;4964552;28;20540;-79
2023/09/17 07:04:07;;;;;;;14.82;13.20;;;17.30;99.90;;;;;;4956283;28;20055;-80
2023/09/17 07:06:33;;;;;;;17.40;12.43;;;17.40;99.90;;;;;;4960695;28;20068;-79
2023/09/17 07:08:58;;;;;;;15.65;13.25;;;17.30;99.90;;;;;;4964554;28;20490;-79
2023/09/17 07:11:24;;;;;;;19.05;13.90;;;17.30;99.90;;;;;;4955697;28;20386;-79
2023/09/17 07:13:50;;;;;;;20.17;14.95;;;17.40;99.90;;;;;;4962545;28;20473;-80
2023/09/17 07:16:17;;;;;;;16.30;13.93;;;17.40;99.90;;;;;;4957429;28;20034;-80
2023/09/17 07:18:44;;;;;;;17.40;13.05;;;17.40;99.90;;;;;;4962515;28;20027;-80
2023/09/17 07:21:10;;;;;;;16.77;14.10;;;17.40;99.90;;;;;;4955659;28;20028;-81
2023/09/17 07:23:36;;;;;;;17.35;14.10;;;17.40;99.90;;;;;;4958668;28;20038;-80
2023/09/17 07:26:03;;;;;;;17.63;13.77;;;17.40;99.90;;;;;;4955343;28;20110;-80
2023/09/17 07:28:29;;;;;;;16.90;14.40;;;17.40;99.90;;;;;;4952867;28;20121;-80
2023/09/17 07:30:55;;;;;;;17.83;14.35;;;17.40;99.90;;;;;;4954618;28;20119;-80
2023/09/17 07:33:21;;;;;;;15.50;13.68;;;17.40;99.90;;;;;;4960172;28;20039;-80
2023/09/17 07:35:48;;;;;;;14.90;13.13;;;17.40;99.90;;;;;;4966594;28;20103;-80
2023/09/17 07:38:13;;;;;;;19.45;14.80;;;17.40;99.90;;;;;;4959662;28;20050;-80
2023/09/17 07:40:39;;;;;;;17.58;13.93;;;17.40;99.90;;;;;;4960704;28;20581;-81
2023/09/17 07:43:06;;;;;;;17.38;13.43;;;17.40;99.90;;;;;;4951833;29;20105;-80
2023/09/17 07:45:33;;;;;;;15.10;11.65;;;17.40;99.90;;;;;;4945833;28;20011;-80
2023/09/17 07:48:00;;;;;;;15.50;13.57;;;17.40;99.90;;;;;;4948351;28;20655;-80
2023/09/17 07:50:25;;;;;;;15.68;13.57;;;17.40;99.90;;;;;;4963864;28;20038;-80
2023/09/17 07:52:51;;;;;;;18.52;14.55;;;17.40;99.90;;;;;;4939981;29;20023;-79
2023/09/17 07:55:18;;;;;;;16.95;13.88;;;17.40;99.90;;;;;;4958581;28;20023;-78
2023/09/17 07:57:46;;;;;;;17.02;13.32;;;17.40;99.90;;;;;;4962397;28;20026;-79
2023/09/17 08:00:15;;;;;;;16.85;14.55;;;17.40;99.90;;;;;;4956650;28;20039;-78
2023/09/17 08:02:43;;;;;;;16.92;13.63;;;17.40;99.90;;;;;;4946041;29;20023;-78
2023/09/17 08:05:09;;;;;;;19.13;14.48;;;17.40;99.90;;;;;;4963574;28;20033;-78
2023/09/17 08:07:40;;;;;;;23.17;15.98;;;17.40;99.90;;;;;;4956760;28;20022;-78
2023/09/17 08:10:09;;;;;;;;;;;17.40;99.90;;;;;;4957657;28;20027;-78
2023/09/17 08:12:35;;;;;;;18.50;14.50;;;17.40;99.90;;;;;;4955081;28;19933;-78
2023/09/17 08:15:01;;;;;;;18.70;15.20;;;17.40;99.90;;;;;;4963875;28;20442;-78
2023/09/17 08:17:27;;;;;;;18.02;14.40;;;17.40;99.90;;;;;;4958771;28;20031;-78
2023/09/17 08:19:54;;;;;;;21.52;14.70;;;17.50;99.90;;;;;;4946527;29;20038;-78
2023/09/17 08:22:21;;;;;;;22.33;15.50;;;17.50;99.90;;;;;;4960951;28;20502;-78
2023/09/17 08:24:47;;;;;;;18.80;15.55;;;17.50;99.90;;;;;;4953402;28;20139;-78
2023/09/17 08:27:15;;;;;;;22.85;17.30;;;17.50;99.90;;;;;;4937396;28;20561;-78
2023/09/17 08:29:41;;;;;;;20.90;16.65;;;17.50;99.90;;;;;;4958986;28;20019;-78
2023/09/17 08:32:07;;;;;;;19.60;15.50;;;17.50;99.90;;;;;;4954882;28;20031;-78
2023/09/17 08:34:33;;;;;;;22.80;18.10;;;17.50;99.90;;;;;;4950361;28;20078;-77
2023/09/17 08:36:58;;;;;;;20.27;17.02;;;17.50;99.90;;;;;;4963981;28;20039;-78
2023/09/17 08:39:25;;;;;;;23.83;17.58;;;17.50;99.90;;;;;;4961024;28;20039;-79
2023/09/17 08:41:52;;;;;;;24.25;19.05;;;17.50;99.90;;;;;;4955802;28;20025;-78
2023/09/17 08:44:18;;;;;;;23.88;19.35;;;17.50;99.90;;;;;;4952817;28;20031;-78
2023/09/17 08:46:45;;;;;;;24.40;18.35;;;17.50;99.90;;;;;;4934121;28;20019;-77
2023/09/17 08:49:11;;;;;;;22.83;18.13;;;17.60;99.90;;;;;;4944992;29;20486;-77
2023/09/17 08:51:41;;;;;;;21.17;17.80;;;17.60;99.90;;;;;;4950356;28;20037;-78
2023/09/17 08:54:38;;;;;;;21.13;17.60;;;17.60;99.90;;;;;;4952467;28;20490;-78
2023/09/17 08:57:06;;;;;;;22.63;17.85;;;17.60;99.90;;;;;;4941215;28;20131;-78
2023/09/17 08:59:38;;;;;;;21.13;18.02;;;17.60;99.90;;;;;;4949925;28;20031;-78
2023/09/17 09:02:09;;;;;;;20.80;18.05;;;17.60;99.90;;;;;;4945230;28;20514;-77
2023/09/17 09:04:36;;;;;;;25.30;19.38;;;17.60;99.90;;;;;;4954543;28;20061;-78
2023/09/17 09:07:03;;;;;;;24.30;19.55;;;17.60;99.90;;;;;;4949230;28;20552;-78
2023/09/17 09:09:30;;;;;;;34.50;21.80;;;17.60;99.90;;;;;;4950842;28;20295;-78
2023/09/17 09:11:57;;;;;;;31.25;22.23;;;17.70;99.90;;;;;;4947854;28;20034;-89
2023/09/17 09:14:23;;;;;;;29.60;22.48;;;17.70;99.90;;;;;;4946182;28;20029;-78
2023/09/17 09:16:49;;;;;;;25.75;18.60;;;17.70;99.90;;;;;;4928259;28;20027;-78
2023/09/17 09:19:14;;;;;;;27.70;22.23;;;17.70;99.90;;;;;;4917492;29;20039;-78
2023/09/17 09:21:40;;;;;;;27.88;20.05;;;17.70;99.90;;;;;;4931356;28;20030;-78
2023/09/17 09:24:06;;;;;;;29.00;23.10;;;17.70;99.90;;;;;;4939090;29;20023;-78
2023/09/17 09:26:37;;;;;;;28.85;22.67;;;17.70;99.90;;;;;;4934442;28;20473;-78
2023/09/17 09:29:04;;;;;;;25.88;21.58;;;17.70;99.90;;;;;;4959324;28;20027;-77
2023/09/17 09:31:33;;;;;;;26.90;21.38;;;17.70;99.90;;;;;;4961689;28;20030;-78
2023/09/17 09:34:00;;;;;;;27.63;22.77;;;17.70;99.90;;;;;;4958199;28;20097;-77
2023/09/17 09:36:32;;;;;;;30.58;23.27;;;17.80;99.90;;;;;;4953705;28;20098;-77
2023/09/17 09:38:58;;;;;;;30.08;23.20;;;17.80;99.90;;;;;;4959565;28;20082;-77
2023/09/17 09:41:25;;;;;;;31.70;25.15;;;17.80;99.90;;;;;;4959789;28;20082;-78
2023/09/17 09:43:52;;;;;;;30.77;24.38;;;17.80;99.90;;;;;;4938486;28;20485;-77
2023/09/17 09:46:18;;;;;;;30.48;23.15;;;17.80;99.90;;;;;;4954506;28;20031;-78
2023/09/17 09:48:46;;;;;;;29.60;23.05;;;17.90;99.90;;;;;;4944035;29;20514;-78
2023/09/17 09:51:15;;;;;;;38.22;25.17;;;17.90;99.90;;;;;;4957934;28;20512;-78
2023/09/17 09:53:41;;;;;;;32.80;25.75;;;17.90;99.90;;;;;;4954056;28;20027;-78
2023/09/17 09:56:08;;;;;;;34.35;25.60;;;17.90;99.90;;;;;;4958940;28;20023;-79
2023/09/17 09:58:35;;;;;;;28.25;22.98;;;17.90;99.90;;;;;;4944495;28;20023;-79
2023/09/17 10:01:04;;;;;;;34.50;26.30;;;18.00;99.90;;;;;;4953852;28;20055;-79
2023/09/17 10:03:30;;;;;;;46.00;28.20;;;18.00;99.90;;;;;;4954336;28;20042;-78
2023/09/17 10:06:06;;;;;;;40.38;27.88;;;18.00;99.90;;;;;;4953506;28;20047;-78
2023/09/17 10:08:34;;;;;;;37.80;26.30;;;18.00;99.90;;;;;;4937481;29;20040;-78
2023/09/17 10:11:00;;;;;;;31.45;25.63;;;18.10;99.90;;;;;;4963359;28;20023;-79
2023/09/17 10:13:27;;;;;;;44.95;28.30;;;18.10;99.90;;;;;;4960601;28;20031;-80
2023/09/17 10:15:53;;;;;;;37.63;26.85;;;18.10;99.90;;;;;;4961435;28;20026;-79
2023/09/17 10:18:19;;;;;;;55.75;31.35;;;18.10;99.90;;;;;;4936971;28;20023;-78
2023/09/17 10:20:47;;;;;;;45.28;28.98;;;18.20;99.90;;;;;;4938831;29;20031;-79
2023/09/17 10:23:15;;;;;;;46.80;30.50;;;18.20;99.90;;;;;;4962017;28;20394;-80
2023/09/17 10:25:44;;;;;;;42.35;28.50;;;18.20;99.90;;;;;;4947836;28;20019;-79
2023/09/17 10:28:11;;;;;;;52.40;32.70;;;18.30;99.90;;;;;;4961518;28;20085;-77
2023/09/17 10:30:38;;;;;;;48.33;31.98;;;18.30;99.90;;;;;;4956713;28;20879;-77
2023/09/17 10:33:07;;;;;;;50.65;32.17;;;18.30;99.90;;;;;;4954041;28;20398;-78
2023/09/17 10:35:34;;;;;;;48.47;32.75;;;18.40;99.90;;;;;;4942125;29;20023;-79
2023/09/17 10:38:03;;;;;;;39.13;28.77;;;18.50;99.90;;;;;;4961414;28;20081;-79
2023/09/17 10:40:30;;;;;;;35.80;25.50;;;18.50;99.90;;;;;;4889401;28;1292294;-79
2023/09/17 10:43:01;;;;;;;43.90;30.92;;;18.50;99.90;;;;;;4956103;28;20035;-79
2023/09/17 10:45:28;;;;;;;44.67;30.85;;;18.50;99.90;;;;;;4962238;28;20054;-77
2023/09/17 10:47:57;;;;;;;41.55;28.50;;;18.50;99.90;;;;;;4959428;28;20039;-78
2023/09/17 10:50:25;;;;;;;48.33;32.25;;;18.50;99.90;;;;;;4953521;28;20018;-79
2023/09/17 10:52:51;;;;;;;38.00;28.85;;;18.50;99.90;;;;;;4958455;28;20016;-79
2023/09/17 10:55:18;;;;;;;55.03;34.83;;;18.50;99.90;;;;;;4960646;28;20037;-79
2023/09/17 10:57:47;;;;;;;45.17;34.00;;;18.60;99.90;;;;;;4956431;28;20023;-79
2023/09/17 11:00:17;;;;;;;45.25;31.52;;;18.60;99.90;;;;;;4963679;28;20031;-79
2023/09/17 11:02:50;;;;;;;47.08;31.58;;;18.60;99.90;;;;;;4961088;28;20152;-78
2023/09/17 11:05:19;;;;;;;48.67;31.70;;;18.60;99.90;;;;;;4961620;28;20030;-78
2023/09/17 11:07:45;;;;;;;67.70;38.65;;;18.60;99.90;;;;;;4953673;28;20031;-79
2023/09/17 11:10:14;;;;;;;61.17;37.70;;;18.70;99.90;;;;;;4955636;28;20070;-79
2023/09/17 11:12:40;;;;;;;70.85;40.30;;;18.70;99.90;;;;;;4962270;28;20114;-78
2023/09/17 11:15:08;;;;;;;63.95;37.65;;;18.80;99.90;;;;;;4955695;28;20050;-79
2023/09/17 11:17:34;;;;;;;69.72;42.28;;;18.90;99.90;;;;;;4954337;28;20031;-78
2023/09/17 11:20:07;;;;;;;70.10;38.95;;;19.00;99.90;;;;;;4961813;28;20038;-81
2023/09/17 11:22:38;;;;;;;60.40;39.90;;;19.00;99.90;;;;;;4960333;28;20058;-80
2023/09/17 11:25:07;;;;;;;54.42;35.03;;;19.10;99.90;;;;;;4953983;28;20038;-78
2023/09/17 11:27:51;;;;;;;70.45;41.63;;;19.10;99.90;;;;;;4958972;28;20023;-79
2023/09/17 11:30:22;;;;;;;69.65;41.47;;;19.10;99.90;;;;;;4959353;28;20030;-80
2023/09/17 11:32:54;;;;;;;65.97;40.63;;;19.20;99.90;;;;;;4958861;28;20035;-77
2023/09/17 11:35:22;;;;;;;59.53;36.90;;;19.20;99.90;;;;;;4964988;28;20031;-79
2023/09/17 11:37:48;;;;;;;63.90;39.88;;;19.30;99.90;;;;;;4963492;28;20037;-79
2023/09/17 11:40:15;;;;;;;74.38;43.30;;;19.30;99.90;;;;;;4969256;28;20050;-79
2023/09/17 11:42:42;;;;;;;70.65;40.13;;;19.40;99.90;;;;;;4960920;28;20572;-78
2023/09/17 11:45:08;;;;;;;63.55;40.58;;;19.40;99.90;;;;;;4965112;28;20033;-78
2023/09/17 11:47:37;;;;;;;71.15;40.63;;;19.40;99.90;;;;;;4959253;28;20489;-77
2023/09/17 11:50:06;;;;;;;70.82;42.00;;;19.50;99.90;;;;;;4957141;28;20016;-78
2023/09/17 11:52:33;;;;;;;54.92;38.58;;;19.50;99.90;;;;;;4963462;28;20019;-78
2023/09/17 11:55:06;;;;;;;57.88;36.28;;;19.50;99.90;;;;;;4964510;28;20021;-78
2023/09/17 11:57:33;;;;;;;65.82;40.53;;;19.50;99.90;;;;;;4957727;28;20037;-79
2023/09/17 11:59:59;;;;;;;59.28;38.25;;;19.50;99.90;;;;;;4958393;28;20490;-79
2023/09/17 12:02:27;;;;;;;70.68;41.20;;;19.50;99.90;;;;;;4964504;28;20114;-78
2023/09/17 12:04:54;;;;;;;58.90;37.63;;;19.50;99.90;;;;;;4961868;28;20078;-78
2023/09/17 12:07:20;;;;;;;65.78;41.85;;;19.50;99.90;;;;;;4956404;28;20030;-78
2023/09/17 12:12:16;;;;;;;73.18;42.38;;;19.60;99.90;;;;;;4954692;28;20035;-78
2023/09/17 12:14:42;;;;;;;69.85;43.35;;;19.60;99.90;;;;;;4963906;28;20015;-78
2023/09/17 12:17:08;;;;;;;57.90;39.08;;;19.60;99.90;;;;;;4960368;28;20030;-78
2023/09/17 12:19:34;;;;;;;59.38;40.40;;;19.60;99.90;;;;;;4956791;28;20019;-78
2023/09/17 12:22:00;;;;;;;68.70;41.97;;;19.60;99.90;;;;;;4962053;28;20405;-77
2023/09/17 12:24:29;;;;;;;74.93;44.35;;;19.60;99.90;;;;;;4964426;28;20039;-77
2023/09/17 12:29:35;;;;;;;61.63;41.83;;;19.60;99.90;;;;;;4956785;28;20039;-76
2023/09/17 12:32:01;;;;;;;56.05;37.25;;;19.60;99.90;;;;;;4963337;28;20027;-76